createdAt,value
2019-05-25T00:00:30.882Z,73.22
2019-05-25T00:01:38.887Z,72.97
2019-05-25T00:02:48.037Z,73.02
2019-05-25T00:03:56.193Z,73.02
2019-05-25T00:05:05.377Z,73.12
2019-05-25T00:06:13.672Z,73.01
2019-05-25T00:07:22.399Z,73.11
2019-05-25T00:08:30.708Z,73.01
2019-05-25T00:09:39.544Z,72.86
2019-05-25T00:10:47.639Z,72.73
2019-05-25T00:11:56.565Z,73.04
2019-05-25T00:13:04.822Z,73.00
2019-05-25T00:14:13.641Z,72.78
2019-05-25T00:15:21.622Z,72.62
2019-05-25T00:16:30.686Z,73.02
2019-05-25T00:17:39.144Z,72.82
2019-05-25T00:18:48.048Z,72.75
2019-05-25T00:19:56.358Z,72.90
2019-05-25T00:21:05.730Z,72.78
2019-05-25T00:22:13.798Z,72.74
2019-05-25T00:23:22.706Z,72.84
2019-05-25T00:24:30.784Z,73.03
2019-05-25T00:25:39.878Z,72.86
2019-05-25T00:26:48.084Z,72.88
2019-05-25T00:27:57.076Z,72.72
2019-05-25T00:29:05.152Z,72.72
2019-05-25T00:30:14.806Z,72.67
2019-05-25T00:31:22.977Z,72.71
2019-05-25T00:32:31.941Z,72.75
2019-05-25T00:33:40.142Z,72.66
2019-05-25T00:34:49.159Z,72.70
2019-05-25T00:35:57.465Z,72.82
2019-05-25T00:37:06.494Z,72.63
2019-05-25T00:38:14.714Z,72.76
2019-05-25T00:39:23.882Z,72.65
2019-05-25T00:40:31.944Z,72.67
2019-05-25T00:41:40.764Z,72.53
2019-05-25T00:42:49.004Z,72.67
2019-05-25T00:43:57.810Z,72.64
2019-05-25T00:45:07.061Z,72.69
2019-05-25T00:46:16.105Z,72.59
2019-05-25T00:47:24.159Z,72.53
2019-05-25T00:48:33.168Z,72.66
2019-05-25T00:49:41.375Z,72.70
2019-05-25T00:50:49.957Z,72.58
2019-05-25T00:51:58.271Z,72.81
2019-05-25T00:53:07.060Z,72.72
2019-05-25T00:54:27.407Z,72.81
2019-05-25T00:55:26.175Z,72.50
2019-05-25T00:56:34.698Z,72.74
2019-05-25T00:57:43.569Z,72.40
2019-05-25T00:58:51.770Z,72.71
2019-05-25T01:00:00.596Z,72.43
2019-05-25T01:01:08.749Z,72.53
2019-05-25T01:02:17.849Z,72.75
2019-05-25T01:03:26.083Z,72.57
2019-05-25T01:04:35.057Z,72.81
2019-05-25T01:05:43.119Z,72.85
2019-05-25T01:06:52.049Z,72.65
2019-05-25T01:08:00.047Z,72.47
2019-05-25T01:09:09.642Z,72.57
2019-05-25T01:10:18.723Z,72.57
2019-05-25T01:11:27.391Z,72.56
2019-05-25T01:12:35.244Z,72.63
2019-05-25T01:13:43.950Z,72.68
2019-05-25T01:14:51.912Z,72.68
2019-05-25T01:16:02.194Z,72.48
2019-05-25T01:17:10.321Z,72.66
2019-05-25T01:18:19.544Z,72.65
2019-05-25T01:19:27.572Z,72.46
2019-05-25T01:20:36.496Z,72.61
2019-05-25T01:21:44.441Z,72.56
2019-05-25T01:22:53.613Z,72.54
2019-05-25T01:24:01.482Z,72.19
2019-05-25T01:25:11.153Z,72.83
2019-05-25T01:26:19.239Z,72.86
2019-05-25T01:27:28.659Z,72.43
2019-05-25T01:28:37.974Z,72.67
2019-05-25T01:29:47.109Z,72.33
2019-05-25T01:30:55.279Z,72.17
2019-05-25T01:32:04.531Z,72.42
2019-05-25T01:33:12.823Z,72.64
2019-05-25T01:34:21.849Z,72.48
2019-05-25T01:35:29.945Z,72.33
2019-05-25T01:36:38.897Z,72.56
2019-05-25T01:37:48.640Z,72.07
2019-05-25T01:38:57.486Z,72.10
2019-05-25T01:40:07.534Z,72.14
2019-05-25T01:41:16.675Z,72.16
2019-05-25T01:42:25.082Z,72.14
2019-05-25T01:43:34.097Z,72.14
2019-05-25T01:44:42.089Z,72.23
2019-05-25T01:45:50.718Z,72.06
2019-05-25T01:46:59.001Z,72.05
2019-05-25T01:48:07.889Z,72.17
2019-05-25T01:49:17.766Z,72.10
2019-05-25T01:50:26.465Z,72.14
2019-05-25T01:51:34.762Z,72.03
2019-05-25T01:52:43.639Z,71.92
2019-05-25T01:53:51.787Z,72.04
2019-05-25T01:55:00.648Z,72.17
2019-05-25T01:56:09.407Z,72.21
2019-05-25T01:57:18.738Z,72.30
2019-05-25T01:58:26.939Z,72.24
2019-05-25T01:59:35.852Z,72.17
2019-05-25T02:00:44.109Z,72.24
2019-05-25T02:01:52.825Z,72.33
2019-05-25T02:03:00.982Z,72.16
2019-05-25T02:04:10.096Z,72.04
2019-05-25T02:05:19.057Z,72.24
2019-05-25T02:06:27.825Z,72.05
2019-05-25T02:07:35.897Z,72.05
2019-05-25T02:08:45.024Z,71.83
2019-05-25T02:09:53.148Z,71.62
2019-05-25T02:11:01.774Z,71.51
2019-05-25T02:12:10.138Z,71.72
2019-05-25T02:13:19.258Z,71.65
2019-05-25T02:14:27.435Z,72.05
2019-05-25T02:15:37.614Z,72.01
2019-05-25T02:16:45.626Z,72.14
2019-05-25T02:17:54.856Z,72.07
2019-05-25T02:19:03.259Z,72.22
2019-05-25T02:20:13.120Z,72.34
2019-05-25T02:21:21.261Z,72.37
2019-05-25T02:22:30.320Z,72.26
2019-05-25T02:23:38.534Z,72.59
2019-05-25T02:24:47.221Z,72.83
2019-05-25T02:25:55.338Z,72.39
2019-05-25T02:27:04.214Z,72.41
2019-05-25T02:28:12.538Z,72.55
2019-05-25T02:29:21.532Z,72.41
2019-05-25T02:30:30.544Z,72.41
2019-05-25T02:31:39.761Z,72.54
2019-05-25T02:32:47.702Z,72.80
2019-05-25T02:33:56.985Z,72.67
2019-05-25T02:35:07.538Z,72.86
2019-05-25T02:36:16.357Z,72.75
2019-05-25T02:37:24.274Z,72.73
2019-05-25T02:38:33.124Z,72.73
2019-05-25T02:39:41.466Z,72.66
2019-05-25T02:40:50.927Z,72.48
2019-05-25T02:41:59.190Z,72.50
2019-05-25T02:43:08.352Z,72.46
2019-05-25T02:44:16.736Z,72.41
2019-05-25T02:45:25.839Z,72.72
2019-05-25T02:46:34.356Z,72.57
2019-05-25T02:47:43.362Z,72.68
2019-05-25T02:48:51.647Z,72.96
2019-05-25T02:50:00.581Z,73.18
2019-05-25T02:51:08.576Z,72.75
2019-05-25T02:52:17.354Z,72.81
2019-05-25T02:53:25.361Z,72.93
2019-05-25T02:54:34.304Z,73.31
2019-05-25T02:55:42.599Z,73.21
2019-05-25T02:56:51.738Z,72.98
2019-05-25T02:57:59.816Z,73.10
2019-05-25T02:59:09.069Z,73.30
2019-05-25T03:00:17.716Z,73.22
2019-05-25T03:01:26.052Z,73.29
2019-05-25T03:02:34.238Z,73.19
2019-05-25T03:03:42.942Z,73.14
2019-05-25T03:04:50.958Z,73.09
2019-05-25T03:06:01.008Z,73.25
2019-05-25T03:07:09.342Z,73.20
2019-05-25T03:08:18.103Z,73.16
2019-05-25T03:09:30.418Z,72.93
2019-05-25T03:10:39.687Z,73.09
2019-05-25T03:11:49.593Z,73.19
2019-05-25T03:13:00.294Z,73.34
2019-05-25T03:14:08.529Z,73.13
2019-05-25T03:15:17.994Z,72.82
2019-05-25T03:16:26.291Z,72.85
2019-05-25T03:17:35.104Z,73.01
2019-05-25T03:18:43.358Z,72.96
2019-05-25T03:19:52.505Z,72.85
2019-05-25T03:21:00.799Z,73.02
2019-05-25T03:22:09.930Z,73.18
2019-05-25T03:23:17.837Z,73.20
2019-05-25T03:24:26.757Z,73.08
2019-05-25T03:25:48.479Z,73.00
2019-05-25T03:26:45.575Z,73.00
2019-05-25T03:27:53.826Z,72.87
2019-05-25T03:29:02.790Z,72.50
2019-05-25T03:30:11.781Z,72.66
2019-05-25T03:31:20.674Z,72.61
2019-05-25T03:32:28.943Z,72.78
2019-05-25T03:33:37.728Z,72.51
2019-05-25T03:34:45.995Z,72.66
2019-05-25T03:35:54.792Z,72.74
2019-05-25T03:37:03.045Z,72.75
2019-05-25T03:38:11.401Z,72.38
2019-05-25T03:39:19.690Z,72.40
2019-05-25T03:40:28.627Z,72.45
2019-05-25T03:41:37.104Z,72.09
2019-05-25T03:42:46.097Z,71.98
2019-05-25T03:43:54.315Z,72.20
2019-05-25T03:45:03.226Z,72.19
2019-05-25T03:46:11.259Z,72.34
2019-05-25T03:47:20.410Z,72.44
2019-05-25T03:48:28.442Z,72.60
2019-05-25T03:49:37.178Z,72.14
2019-05-25T03:50:46.170Z,72.02
2019-05-25T03:51:55.025Z,72.30
2019-05-25T03:53:03.085Z,72.48
2019-05-25T03:54:12.100Z,72.47
2019-05-25T03:55:20.330Z,72.36
2019-05-25T03:56:29.841Z,71.88
2019-05-25T03:57:37.957Z,72.04
2019-05-25T03:58:46.739Z,71.95
2019-05-25T03:59:54.841Z,72.09
2019-05-25T04:01:03.940Z,71.94
2019-05-25T04:02:12.254Z,71.62
2019-05-25T04:03:21.119Z,71.68
2019-05-25T04:04:29.373Z,71.71
2019-05-25T04:05:38.184Z,71.73
2019-05-25T04:06:46.396Z,71.41
2019-05-25T04:07:55.410Z,71.78
2019-05-25T04:09:03.433Z,71.78
2019-05-25T04:10:13.955Z,72.00
2019-05-25T04:11:22.676Z,72.02
2019-05-25T04:12:31.625Z,71.61
2019-05-25T04:13:39.976Z,71.63
2019-05-25T04:14:49.000Z,71.64
2019-05-25T04:15:58.911Z,71.58
2019-05-25T04:17:07.716Z,71.82
2019-05-25T04:18:15.999Z,71.66
2019-05-25T04:19:24.986Z,71.88
2019-05-25T04:20:33.099Z,72.03
2019-05-25T04:21:42.087Z,71.98
2019-05-25T04:22:50.284Z,72.07
2019-05-25T04:23:58.970Z,72.31
2019-05-25T04:25:07.747Z,72.58
2019-05-25T04:26:22.375Z,72.54
2019-05-25T04:27:26.505Z,72.24
2019-05-25T04:28:35.229Z,72.38
2019-05-25T04:29:43.444Z,72.19
2019-05-25T04:30:52.018Z,72.11
2019-05-25T04:32:00.173Z,72.07
2019-05-25T04:33:08.977Z,72.18
2019-05-25T04:34:17.091Z,72.48
2019-05-25T04:35:25.919Z,72.40
2019-05-25T04:36:33.933Z,72.35
2019-05-25T04:37:42.863Z,72.37
2019-05-25T04:38:50.915Z,72.38
2019-05-25T04:39:59.736Z,72.50
2019-05-25T04:41:08.120Z,72.49
2019-05-25T04:42:16.834Z,72.51
2019-05-25T04:43:24.742Z,72.49
2019-05-25T04:44:34.051Z,72.42
2019-05-25T04:45:42.115Z,72.59
2019-05-25T04:46:51.095Z,72.61
2019-05-25T04:47:59.061Z,72.72
2019-05-25T04:49:07.605Z,72.81
2019-05-25T04:50:16.255Z,72.99
2019-05-25T04:51:25.329Z,72.74
2019-05-25T04:52:33.941Z,72.69
2019-05-25T04:53:43.124Z,72.74
2019-05-25T04:54:51.343Z,72.70
2019-05-25T04:56:00.461Z,72.80
2019-05-25T04:57:08.757Z,72.66
2019-05-25T04:58:18.276Z,72.79
2019-05-25T04:59:26.397Z,72.95
2019-05-25T05:00:35.547Z,73.33
2019-05-25T05:01:44.034Z,73.51
2019-05-25T05:02:53.307Z,73.43
2019-05-25T05:04:01.950Z,72.76
2019-05-25T05:05:11.082Z,72.52
2019-05-25T05:06:19.030Z,72.33
2019-05-25T05:07:27.539Z,72.27
2019-05-25T05:08:35.964Z,72.16
2019-05-25T05:09:44.832Z,71.95
2019-05-25T05:10:52.915Z,72.01
2019-05-25T05:12:01.913Z,71.61
2019-05-25T05:13:10.147Z,71.94
2019-05-25T05:14:19.419Z,71.60
2019-05-25T05:15:27.652Z,71.50
2019-05-25T05:16:37.152Z,71.67
2019-05-25T05:17:45.822Z,71.64
2019-05-25T05:18:55.096Z,71.86
2019-05-25T05:20:03.628Z,71.94
2019-05-25T05:21:13.055Z,71.92
2019-05-25T05:22:21.355Z,71.93
2019-05-25T05:23:30.675Z,72.03
2019-05-25T05:24:38.889Z,72.10
2019-05-25T05:25:48.464Z,72.24
2019-05-25T05:26:56.905Z,72.16
2019-05-25T05:28:06.171Z,71.77
2019-05-25T05:29:14.535Z,71.58
2019-05-25T05:30:35.663Z,71.75
2019-05-25T05:31:43.938Z,72.09
2019-05-25T05:32:53.211Z,71.67
2019-05-25T05:34:02.230Z,71.98
2019-05-25T05:35:12.043Z,72.10
2019-05-25T05:36:21.944Z,71.95
2019-05-25T05:37:32.923Z,72.15
2019-05-25T05:38:41.934Z,71.40
2019-05-25T05:39:51.781Z,71.44
2019-05-25T05:41:01.719Z,71.49
2019-05-25T05:42:15.058Z,71.25
2019-05-25T05:43:25.406Z,71.10
2019-05-25T05:44:38.113Z,71.32
2019-05-25T05:45:49.309Z,71.25
2019-05-25T05:47:00.849Z,71.09
2019-05-25T05:48:12.790Z,71.03
2019-05-25T05:49:22.011Z,70.97
2019-05-25T05:50:32.615Z,70.93
2019-05-25T05:51:44.642Z,70.97
2019-05-25T05:52:56.063Z,70.87
2019-05-25T05:54:06.922Z,71.12
2019-05-25T05:55:18.570Z,70.87
2019-05-25T05:56:27.614Z,71.01
2019-05-25T05:57:36.284Z,70.85
2019-05-25T05:58:45.183Z,70.84
2019-05-25T05:59:53.331Z,70.90
2019-05-25T06:01:02.576Z,70.68
2019-05-25T06:02:11.113Z,70.63
2019-05-25T06:03:20.133Z,70.70
2019-05-25T06:04:28.639Z,70.63
2019-05-25T06:05:37.601Z,71.04
2019-05-25T06:06:46.212Z,71.06
2019-05-25T06:07:55.586Z,70.84
2019-05-25T06:09:05.261Z,70.82
2019-05-25T06:10:15.268Z,70.70
2019-05-25T06:11:23.572Z,70.89
2019-05-25T06:12:33.066Z,70.71
2019-05-25T06:13:41.243Z,70.82
2019-05-25T06:14:50.397Z,71.11
2019-05-25T06:15:58.511Z,70.45
2019-05-25T06:17:07.114Z,70.43
2019-05-25T06:18:15.619Z,70.36
2019-05-25T06:19:24.979Z,70.18
2019-05-25T06:20:33.347Z,70.47
2019-05-25T06:21:42.847Z,70.50
2019-05-25T06:22:51.373Z,70.39
2019-05-25T06:24:00.424Z,70.63
2019-05-25T06:25:12.198Z,70.83
2019-05-25T06:26:20.891Z,70.81
2019-05-25T06:27:29.220Z,70.54
2019-05-25T06:28:45.136Z,70.34
2019-05-25T06:29:53.161Z,70.71
2019-05-25T06:31:02.204Z,70.72
2019-05-25T06:32:10.323Z,70.50
2019-05-25T06:33:19.472Z,70.33
2019-05-25T06:34:27.907Z,70.20
2019-05-25T06:35:36.615Z,70.32
2019-05-25T06:36:45.009Z,70.62
2019-05-25T06:37:54.313Z,70.95
2019-05-25T06:39:02.841Z,70.49
2019-05-25T06:40:12.866Z,70.64
2019-05-25T06:41:20.791Z,70.49
2019-05-25T06:42:29.643Z,70.18
2019-05-25T06:43:37.809Z,70.11
2019-05-25T06:44:46.778Z,69.55
2019-05-25T06:45:55.539Z,69.92
2019-05-25T06:47:04.932Z,70.08
2019-05-25T06:48:13.492Z,70.32
2019-05-25T06:49:21.913Z,70.44
2019-05-25T06:50:30.956Z,70.26
2019-05-25T06:51:39.682Z,69.78
2019-05-25T06:52:48.424Z,69.96
2019-05-25T06:53:57.618Z,70.36
2019-05-25T06:55:08.442Z,70.13
2019-05-25T06:56:17.146Z,69.83
2019-05-25T06:57:25.362Z,70.04
2019-05-25T06:58:34.535Z,69.77
2019-05-25T06:59:42.491Z,69.18
2019-05-25T07:00:51.481Z,69.67
2019-05-25T07:01:59.620Z,69.39
2019-05-25T07:03:08.364Z,69.06
2019-05-25T07:04:16.636Z,69.50
2019-05-25T07:05:25.855Z,69.14
2019-05-25T07:06:34.102Z,69.04
2019-05-25T07:07:42.810Z,69.02
2019-05-25T07:08:51.316Z,68.96
2019-05-25T07:10:00.013Z,69.23
2019-05-25T07:11:08.296Z,69.17
2019-05-25T07:12:17.105Z,68.64
2019-05-25T07:13:28.358Z,68.62
2019-05-25T07:14:35.875Z,68.78
2019-05-25T07:15:44.191Z,69.10
2019-05-25T07:16:53.167Z,69.25
2019-05-25T07:18:01.614Z,68.63
2019-05-25T07:19:10.387Z,68.23
2019-05-25T07:20:19.545Z,67.89
2019-05-25T07:21:28.864Z,67.95
2019-05-25T07:22:37.178Z,67.95
2019-05-25T07:23:46.652Z,67.78
2019-05-25T07:24:55.030Z,67.47
2019-05-25T07:26:04.217Z,67.63
2019-05-25T07:27:13.287Z,67.52
2019-05-25T07:28:22.493Z,67.83
2019-05-25T07:29:30.853Z,68.23
2019-05-25T07:30:40.409Z,67.79
2019-05-25T07:31:48.599Z,66.83
2019-05-25T07:32:57.679Z,66.26
2019-05-25T07:34:05.987Z,66.26
2019-05-25T07:35:15.077Z,66.46
2019-05-25T07:36:23.441Z,66.19
2019-05-25T07:37:32.464Z,65.50
2019-05-25T07:38:40.692Z,65.50
2019-05-25T07:39:49.098Z,66.78
2019-05-25T07:40:57.139Z,66.74
2019-05-25T07:42:06.126Z,66.53
2019-05-25T07:43:14.165Z,66.17
2019-05-25T07:44:22.973Z,66.21
2019-05-25T07:45:31.080Z,65.31
2019-05-25T07:46:39.797Z,64.94
2019-05-25T07:47:47.777Z,64.43
2019-05-25T07:48:56.907Z,64.79
2019-05-25T07:50:09.975Z,64.92
2019-05-25T07:51:19.729Z,63.40
2019-05-25T07:52:27.846Z,63.31
2019-05-25T07:53:38.825Z,64.10
2019-05-25T07:54:47.439Z,64.36
2019-05-25T07:55:56.391Z,63.42
2019-05-25T07:57:04.719Z,63.71
2019-05-25T07:58:17.644Z,62.90
2019-05-25T07:59:23.112Z,63.28
2019-05-25T08:00:32.122Z,63.49
2019-05-25T08:01:40.015Z,62.68
2019-05-25T08:02:49.268Z,63.98
2019-05-25T08:03:58.047Z,63.13
2019-05-25T08:05:10.143Z,61.89
2019-05-25T08:06:19.269Z,62.21
2019-05-25T08:07:32.661Z,62.45
2019-05-25T08:08:43.355Z,62.41
2019-05-25T08:09:53.957Z,62.56
2019-05-25T08:11:04.354Z,62.86
2019-05-25T08:12:13.783Z,60.67
2019-05-25T08:13:22.158Z,61.63
2019-05-25T08:14:30.996Z,59.76
2019-05-25T08:15:39.422Z,61.76
2019-05-25T08:16:48.237Z,61.36
2019-05-25T08:17:56.472Z,62.43
2019-05-25T08:19:05.491Z,62.57
2019-05-25T08:20:14.094Z,62.12
2019-05-25T08:21:22.873Z,60.37
2019-05-25T08:22:30.825Z,61.21
2019-05-25T08:23:40.079Z,59.12
2019-05-25T08:24:48.249Z,61.31
2019-05-25T08:25:57.797Z,58.38
2019-05-25T08:27:06.339Z,60.51
2019-05-25T08:28:29.842Z,61.27
2019-05-25T08:29:26.486Z,60.62
2019-05-25T08:30:35.459Z,60.73
2019-05-25T08:31:43.845Z,59.55
2019-05-25T08:32:52.920Z,56.62
2019-05-25T08:34:01.115Z,58.21
2019-05-25T08:35:10.271Z,57.70
2019-05-25T08:36:18.341Z,58.74
2019-05-25T08:37:27.174Z,56.95
2019-05-25T08:38:35.462Z,56.33
2019-05-25T08:39:44.605Z,56.42
2019-05-25T08:40:52.915Z,56.01
2019-05-25T08:42:02.849Z,56.92
2019-05-25T08:43:11.161Z,57.10
2019-05-25T08:44:20.373Z,57.18
2019-05-25T08:45:28.591Z,57.11
2019-05-25T08:46:37.878Z,56.70
2019-05-25T08:47:46.252Z,55.62
2019-05-25T08:48:55.528Z,55.30
2019-05-25T08:50:04.276Z,56.04
2019-05-25T08:51:13.613Z,55.59
2019-05-25T08:52:22.640Z,54.48
2019-05-25T08:53:41.546Z,56.78
2019-05-25T08:54:42.002Z,56.53
2019-05-25T08:55:50.863Z,57.19
2019-05-25T08:56:59.153Z,56.72
2019-05-25T08:58:07.989Z,56.83
2019-05-25T08:59:16.123Z,53.58
2019-05-25T09:00:25.166Z,53.89
2019-05-25T09:01:33.219Z,54.33
2019-05-25T09:02:42.304Z,54.35
2019-05-25T09:03:50.362Z,53.63
2019-05-25T09:04:59.510Z,53.64
2019-05-25T09:06:07.470Z,52.78
2019-05-25T09:07:16.428Z,52.39
2019-05-25T09:08:24.620Z,51.32
2019-05-25T09:09:33.433Z,49.79
2019-05-25T09:10:41.569Z,50.38
2019-05-25T09:11:51.203Z,51.00
2019-05-25T09:12:59.483Z,51.10
2019-05-25T09:14:08.733Z,51.97
2019-05-25T09:15:17.214Z,50.43
2019-05-25T09:16:26.225Z,49.57
2019-05-25T09:17:34.417Z,51.51
2019-05-25T09:18:42.754Z,50.67
2019-05-25T09:19:50.939Z,51.46
2019-05-25T09:21:00.233Z,51.44
2019-05-25T09:22:08.655Z,50.78
2019-05-25T09:23:17.900Z,51.17
2019-05-25T09:24:26.056Z,51.64
2019-05-25T09:25:35.298Z,50.69
2019-05-25T09:26:44.359Z,49.51
2019-05-25T09:27:53.203Z,49.43
2019-05-25T09:29:04.611Z,49.51
2019-05-25T09:30:12.606Z,50.33
2019-05-25T09:31:20.901Z,48.59
2019-05-25T09:32:30.996Z,50.36
2019-05-25T09:33:39.159Z,49.33
2019-05-25T09:34:48.558Z,48.53
2019-05-25T09:35:56.727Z,48.84
2019-05-25T09:37:05.675Z,47.71
2019-05-25T09:38:14.212Z,47.42
2019-05-25T09:39:23.299Z,48.03
2019-05-25T09:40:33.423Z,48.97
2019-05-25T09:41:42.782Z,46.65
2019-05-25T09:42:51.630Z,47.26
2019-05-25T09:44:01.482Z,47.51
2019-05-25T09:45:13.899Z,46.70
2019-05-25T09:46:21.235Z,47.07
2019-05-25T09:47:29.896Z,48.40
2019-05-25T09:48:38.844Z,46.66
2019-05-25T09:49:47.360Z,47.70
2019-05-25T09:50:56.453Z,47.59
2019-05-25T09:52:04.844Z,47.64
2019-05-25T09:53:14.077Z,45.25
2019-05-25T09:54:23.330Z,45.85
2019-05-25T09:55:34.634Z,46.27
2019-05-25T09:56:43.119Z,44.40
2019-05-25T09:57:52.433Z,45.45
2019-05-25T09:59:00.854Z,46.84
2019-05-25T10:00:13.108Z,46.68
2019-05-25T10:01:23.227Z,44.58
2019-05-25T10:02:32.607Z,43.10
2019-05-25T10:03:41.222Z,42.50
2019-05-25T10:04:50.076Z,42.49
2019-05-25T10:05:58.549Z,43.20
2019-05-25T10:07:08.184Z,44.06
2019-05-25T10:08:16.203Z,43.23
2019-05-25T10:09:25.659Z,41.89
2019-05-25T10:10:34.517Z,42.31
2019-05-25T10:11:44.538Z,41.05
2019-05-25T10:12:55.343Z,42.42
2019-05-25T10:14:04.235Z,43.31
2019-05-25T10:15:12.857Z,42.56
2019-05-25T10:16:21.924Z,44.33
2019-05-25T10:17:30.353Z,44.11
2019-05-25T10:18:39.929Z,43.71
2019-05-25T10:19:48.664Z,40.30
2019-05-25T10:20:57.629Z,41.81
2019-05-25T10:22:06.497Z,41.27
2019-05-25T10:23:15.870Z,39.89
2019-05-25T10:24:24.499Z,38.72
2019-05-25T10:25:33.560Z,37.44
2019-05-25T10:26:42.201Z,38.68
2019-05-25T10:27:51.325Z,36.79
2019-05-25T10:28:59.860Z,34.31
2019-05-25T10:30:11.283Z,37.47
2019-05-25T10:31:20.019Z,36.35
2019-05-25T10:32:29.312Z,35.60
2019-05-25T10:33:38.767Z,34.97
2019-05-25T10:34:48.301Z,33.24
2019-05-25T10:36:32.636Z,34.47
2019-05-25T10:37:42.090Z,32.84
2019-05-25T10:38:50.722Z,29.90
2019-05-25T10:39:59.910Z,30.20
2019-05-25T10:41:07.972Z,32.75
2019-05-25T10:42:17.136Z,32.02
2019-05-25T10:43:25.080Z,33.43
2019-05-25T10:44:34.553Z,32.53
2019-05-25T10:45:43.169Z,31.90
2019-05-25T10:46:52.043Z,32.91
2019-05-25T10:48:00.177Z,32.71
2019-05-25T10:49:11.686Z,32.91
2019-05-25T10:50:19.632Z,33.98
2019-05-25T10:51:28.664Z,38.15
2019-05-25T10:52:37.253Z,36.28
2019-05-25T10:53:46.193Z,36.09
2019-05-25T10:54:54.371Z,34.00
2019-05-25T10:56:02.885Z,30.29
2019-05-25T10:57:13.240Z,33.65
2019-05-25T10:58:21.557Z,29.73
2019-05-25T10:59:29.994Z,28.74
2019-05-25T11:00:38.948Z,29.63
2019-05-25T11:01:47.031Z,31.97
2019-05-25T11:02:56.686Z,32.03
2019-05-25T11:04:05.662Z,32.24
2019-05-25T11:05:16.430Z,32.37
2019-05-25T11:06:24.594Z,32.05
2019-05-25T11:07:33.582Z,36.61
2019-05-25T11:08:42.296Z,34.39
2019-05-25T11:09:52.300Z,33.09
2019-05-25T11:11:00.539Z,31.00
2019-05-25T11:12:09.719Z,30.15
2019-05-25T11:13:18.451Z,29.93
2019-05-25T11:14:27.535Z,29.35
2019-05-25T11:15:36.015Z,28.27
2019-05-25T11:16:45.216Z,28.03
2019-05-25T11:17:53.532Z,31.66
2019-05-25T11:19:02.359Z,29.85
2019-05-25T11:20:12.236Z,30.60
2019-05-25T11:21:21.146Z,29.98
2019-05-25T11:22:29.342Z,30.67
2019-05-25T11:23:39.070Z,31.50
2019-05-25T11:24:47.243Z,31.84
2019-05-25T11:25:56.814Z,33.41
2019-05-25T11:27:04.937Z,32.75
2019-05-25T11:28:13.872Z,32.87
2019-05-25T11:29:22.236Z,31.99
2019-05-25T11:30:31.190Z,28.97
2019-05-25T11:31:39.424Z,28.55
2019-05-25T11:32:48.328Z,27.84
2019-05-25T11:33:56.749Z,25.92
2019-05-25T11:35:07.514Z,27.13
2019-05-25T11:36:15.355Z,26.62
2019-05-25T11:37:24.771Z,27.18
2019-05-25T11:38:32.963Z,25.47
2019-05-25T11:39:42.106Z,27.08
2019-05-25T11:40:50.527Z,25.02
2019-05-25T11:41:59.804Z,22.39
2019-05-25T11:43:07.970Z,22.89
2019-05-25T11:44:17.082Z,23.44
2019-05-25T11:45:25.363Z,24.77
2019-05-25T11:46:34.247Z,24.93
2019-05-25T11:47:42.282Z,26.35
2019-05-25T11:48:51.402Z,27.22
2019-05-25T11:49:59.735Z,28.80
2019-05-25T11:51:08.411Z,24.91
2019-05-25T11:52:16.540Z,25.24
2019-05-25T11:53:25.521Z,26.27
2019-05-25T11:54:33.721Z,26.48
2019-05-25T11:55:42.753Z,25.70
2019-05-25T11:56:50.803Z,25.75
2019-05-25T11:57:59.818Z,25.05
2019-05-25T11:59:07.925Z,24.87
2019-05-25T12:00:25.565Z,24.10
2019-05-25T12:01:31.110Z,24.73
2019-05-25T12:02:40.348Z,24.44
2019-05-25T12:03:48.548Z,25.45
2019-05-25T12:04:57.553Z,25.58
2019-05-25T12:06:05.629Z,23.72
2019-05-25T12:07:14.591Z,23.15
2019-05-25T12:08:22.974Z,23.04
2019-05-25T12:09:31.709Z,21.83
2019-05-25T12:10:42.404Z,22.51
2019-05-25T12:11:51.736Z,22.93
2019-05-25T12:13:00.576Z,23.59
2019-05-25T12:14:09.765Z,23.48
2019-05-25T12:15:19.440Z,24.41
2019-05-25T12:16:28.029Z,25.05
2019-05-25T12:17:36.158Z,26.43
2019-05-25T12:18:44.927Z,27.18
2019-05-25T12:19:53.059Z,26.27
2019-05-25T12:21:02.645Z,25.22
2019-05-25T12:22:10.692Z,25.25
2019-05-25T12:23:19.068Z,24.74
2019-05-25T12:24:27.100Z,26.47
2019-05-25T12:25:36.189Z,25.19
2019-05-25T12:26:44.410Z,25.28
2019-05-25T12:27:54.049Z,25.23
2019-05-25T12:29:02.120Z,26.97
2019-05-25T12:30:11.247Z,26.13
2019-05-25T12:31:19.507Z,26.73
2019-05-25T12:32:28.714Z,25.81
2019-05-25T12:33:36.950Z,25.17
2019-05-25T12:34:46.385Z,24.27
2019-05-25T12:35:55.010Z,23.75
2019-05-25T12:37:04.005Z,24.67
2019-05-25T12:38:12.175Z,24.85
2019-05-25T12:39:21.982Z,23.32
2019-05-25T12:40:30.278Z,23.46
2019-05-25T12:41:39.537Z,23.91
2019-05-25T12:42:47.698Z,24.35
2019-05-25T12:43:56.443Z,25.00
2019-05-25T12:45:05.466Z,25.44
2019-05-25T12:46:14.254Z,25.17
2019-05-25T12:47:22.527Z,25.22
2019-05-25T12:48:31.438Z,25.54
2019-05-25T12:49:50.284Z,23.81
2019-05-25T12:50:50.840Z,24.73
2019-05-25T12:51:59.182Z,24.55
2019-05-25T12:53:08.275Z,25.03
2019-05-25T12:54:16.649Z,24.40
2019-05-25T12:55:25.582Z,24.15
2019-05-25T12:56:33.909Z,24.40
2019-05-25T12:57:42.600Z,23.82
2019-05-25T12:58:50.661Z,24.14
2019-05-25T13:00:14.288Z,23.85
2019-05-25T13:01:09.723Z,23.14
2019-05-25T13:02:18.043Z,23.24
2019-05-25T13:03:28.360Z,23.79
2019-05-25T13:04:36.951Z,24.88
2019-05-25T13:05:45.288Z,24.34
2019-05-25T13:06:54.101Z,24.59
2019-05-25T13:08:02.290Z,24.99
2019-05-25T13:09:12.242Z,25.61
2019-05-25T13:10:20.559Z,24.87
2019-05-25T13:11:29.767Z,25.29
2019-05-25T13:12:37.937Z,25.57
2019-05-25T13:13:46.946Z,25.30
2019-05-25T13:14:55.657Z,25.04
2019-05-25T13:16:05.485Z,24.04
2019-05-25T13:17:14.147Z,24.32
2019-05-25T13:18:23.317Z,24.14
2019-05-25T13:19:31.637Z,24.24
2019-05-25T13:20:40.799Z,24.15
2019-05-25T13:21:49.252Z,24.55
2019-05-25T13:22:58.421Z,24.47
2019-05-25T13:24:06.940Z,23.51
2019-05-25T13:25:16.059Z,23.41
2019-05-25T13:26:24.379Z,24.24
2019-05-25T13:27:33.912Z,23.63
2019-05-25T13:28:41.924Z,24.67
2019-05-25T13:29:51.095Z,24.55
2019-05-25T13:31:11.383Z,23.96
2019-05-25T13:32:10.689Z,24.88
2019-05-25T13:33:19.491Z,24.97
2019-05-25T13:34:28.507Z,24.10
2019-05-25T13:35:37.125Z,24.00
2019-05-25T13:36:46.127Z,24.53
2019-05-25T13:37:54.451Z,24.10
2019-05-25T13:39:03.767Z,24.30
2019-05-25T13:40:12.681Z,24.01
2019-05-25T13:41:21.881Z,24.31
2019-05-25T13:42:30.088Z,24.79
2019-05-25T13:43:38.767Z,24.64
2019-05-25T13:44:46.919Z,24.67
2019-05-25T13:45:55.424Z,25.32
2019-05-25T13:47:04.026Z,25.16
2019-05-25T13:48:12.808Z,25.07
2019-05-25T13:49:21.509Z,25.20
2019-05-25T13:50:30.758Z,24.86
2019-05-25T13:51:39.327Z,24.95
2019-05-25T13:52:48.804Z,25.14
2019-05-25T13:53:56.786Z,25.25
2019-05-25T13:55:06.658Z,24.80
2019-05-25T13:56:14.940Z,24.72
2019-05-25T13:57:24.116Z,24.89
2019-05-25T13:58:32.975Z,24.25
2019-05-25T13:59:42.015Z,24.08
2019-05-25T14:00:50.194Z,24.21
2019-05-25T14:01:58.895Z,24.47
2019-05-25T14:03:07.105Z,24.44
2019-05-25T14:04:16.188Z,24.89
2019-05-25T14:05:24.348Z,25.32
2019-05-25T14:06:33.735Z,25.43
2019-05-25T14:07:43.494Z,24.35
2019-05-25T14:08:52.126Z,24.51
2019-05-25T14:10:00.729Z,25.22
2019-05-25T14:11:09.926Z,25.61
2019-05-25T14:12:18.528Z,25.64
2019-05-25T14:13:27.663Z,25.24
2019-05-25T14:14:36.005Z,24.71
2019-05-25T14:15:44.978Z,25.06
2019-05-25T14:16:53.395Z,25.21
2019-05-25T14:18:02.459Z,25.59
2019-05-25T14:19:10.582Z,25.80
2019-05-25T14:20:20.031Z,26.21
2019-05-25T14:21:28.464Z,26.69
2019-05-25T14:22:38.017Z,26.92
2019-05-25T14:23:46.198Z,26.90
2019-05-25T14:24:55.105Z,26.46
2019-05-25T14:26:03.968Z,26.69
2019-05-25T14:27:12.703Z,26.75
2019-05-25T14:28:20.797Z,27.21
2019-05-25T14:29:29.817Z,27.39
2019-05-25T14:30:38.434Z,27.66
2019-05-25T14:31:47.462Z,27.45
2019-05-25T14:32:55.477Z,27.17
2019-05-25T14:34:04.715Z,26.99
2019-05-25T14:35:13.978Z,26.96
2019-05-25T14:36:23.138Z,26.92
2019-05-25T14:37:31.321Z,27.27
2019-05-25T14:38:40.648Z,27.51
2019-05-25T14:39:49.469Z,27.85
2019-05-25T14:40:58.409Z,28.25
2019-05-25T14:42:06.734Z,28.32
2019-05-25T14:43:16.121Z,28.53
2019-05-25T14:44:24.970Z,28.79
2019-05-25T14:45:34.255Z,28.78
2019-05-25T14:46:42.598Z,28.51
2019-05-25T14:47:51.729Z,28.92